Time;durP1;ratioP1;P1;durP2;ratioP2;P2;SDS_P1;SDS_P2;PMS_P1;PMS_P2;Temp;Humidity;BMP_temperature;BMP_pressure;BME280_temperature;BME280_humidity;BME280_pressure;Samples;Min_cycle;Max_cycle;Signal;HPM_P1;HPM_P2
2023/03/31 00:02:12;;;;;;;2.40;1.30;;;;;;;8.91;88.08;99691.55;109095;1257;83390;-65
2023/03/31 00:04:45;;;;;;;3.60;1.00;;;;;;;8.95;87.91;99692.98;109024;1257;73107;-64
2023/03/31 00:07:15;;;;;;;3.10;1.10;;;;;;;9.01;88.02;99690.64;109051;1257;66802;-64
2023/03/31 00:09:44;;;;;;;2.90;1.00;;;;;;;9.08;88.20;99682.66;109071;1257;66799;-68
2023/03/31 00:12:16;;;;;;;3.40;1.10;;;;;;;9.15;87.99;99681.48;109078;1257;74900;-63
2023/03/31 00:14:45;;;;;;;2.20;0.90;;;;;;;9.23;87.92;99678.73;109076;1257;83254;-65
2023/03/31 00:17:14;;;;;;;3.70;1.50;;;;;;;9.28;87.93;99674.11;109077;1257;73828;-65
2023/03/31 00:19:42;;;;;;;2.80;0.90;;;;;;;9.31;87.61;99672.27;109063;1256;66860;-64
2023/03/31 00:22:11;;;;;;;3.10;0.90;;;;;;;9.34;87.55;99675.11;109076;1257;66725;-64
2023/03/31 00:24:39;;;;;;;3.70;1.00;;;;;;;9.35;87.45;99673.79;109087;1257;74219;-64
2023/03/31 00:27:08;;;;;;;3.90;1.10;;;;;;;9.38;87.36;99673.52;109076;1257;82952;-64
2023/03/31 00:29:40;;;;;;;2.90;0.90;;;;;;;9.41;87.23;99670.98;109056;1258;72876;-64
2023/03/31 00:32:08;;;;;;;5.70;1.10;;;;;;;9.42;87.18;99667.07;109037;1257;66799;-64
2023/03/31 00:34:37;;;;;;;2.50;1.10;;;;;;;9.42;87.01;99668.29;109016;1257;66833;-64
2023/03/31 00:37:08;;;;;;;4.20;1.30;;;;;;;9.41;86.71;99666.77;109065;1257;74861;-64
2023/03/31 00:39:37;;;;;;;2.70;1.10;;;;;;;9.39;86.61;99667.38;109067;1257;83825;-65
2023/03/31 00:42:11;;;;;;;3.00;0.80;;;;;;;9.37;86.62;99668.86;109065;1257;73968;-64
2023/03/31 00:45:20;;;;;;;6.00;1.10;;;;;;;9.36;86.62;99672.91;109074;1257;66928;-64
2023/03/31 00:47:59;;;;;;;3.00;1.00;;;;;;;9.34;86.48;99667.09;109049;1257;66875;-64
2023/03/31 00:50:32;;;;;;;2.30;1.10;;;;;;;9.33;86.49;99660.85;109077;1257;74982;-64
2023/03/31 00:53:12;;;;;;;2.50;0.90;;;;;;;9.32;86.44;99658.42;109082;1257;83415;-65
2023/03/31 00:55:53;;;;;;;4.30;1.10;;;;;;;9.31;86.35;99657.08;109100;1257;73846;-64
2023/03/31 00:58:27;;;;;;;3.60;1.30;;;;;;;9.31;86.24;99647.35;109018;1257;66866;-64
2023/03/31 01:00:57;;;;;;;3.90;1.30;;;;;;;9.27;86.23;99647.50;109057;1257;67288;-64
2023/03/31 01:03:25;;;;;;;4.60;1.40;;;;;;;9.24;86.12;99643.63;109117;1257;74078;-64
2023/03/31 01:06:09;;;;;;;2.80;1.30;;;;;;;9.23;86.16;99643.48;109105;1257;82624;-64
2023/03/31 01:08:37;;;;;;;3.20;1.10;;;;;;;9.24;86.22;99644.35;109035;1257;73756;-64
2023/03/31 01:11:09;;;;;;;4.50;1.20;;;;;;;9.23;86.34;99639.84;108988;1257;66916;-64
2023/03/31 01:13:39;;;;;;;3.70;1.20;;;;;;;9.25;86.29;99639.08;109054;1257;66994;-64
2023/03/31 01:16:09;;;;;;;4.30;1.10;;;;;;;9.26;86.23;99634.46;109120;1257;73884;-64
2023/03/31 01:18:38;;;;;;;2.90;1.10;;;;;;;9.27;86.22;99628.88;109061;1257;83347;-64
2023/03/31 01:21:46;;;;;;;3.20;1.10;;;;;;;9.27;86.14;99627.28;109086;1257;72645;-64
2023/03/31 01:24:46;;;;;;;4.30;1.20;;;;;;;9.29;86.20;99627.35;109043;1257;66924;-64
2023/03/31 01:27:43;;;;;;;4.30;1.30;;;;;;;9.32;86.23;99623.41;109074;1257;66817;-63
2023/03/31 01:30:34;;;;;;;4.40;1.80;;;;;;;9.33;85.92;99627.00;109054;1257;74265;-64
2023/03/31 01:33:07;;;;;;;;;;;;;;;9.34;85.97;99623.50;109074;1257;82672;-63
2023/03/31 01:36:01;;;;;;;4.40;1.30;;;;;;;9.34;85.92;99617.38;109009;1257;73883;-64
2023/03/31 01:38:51;;;;;;;4.50;1.10;;;;;;;9.34;85.78;99619.30;109035;1257;66865;-64
2023/03/31 01:41:35;;;;;;;2.70;0.80;;;;;;;9.36;85.85;99613.31;109056;1257;67344;-64
2023/03/31 01:44:27;;;;;;;2.20;1.20;;;;;;;9.38;85.71;99614.23;109061;1257;74915;-64
2023/03/31 01:47:04;;;;;;;5.10;1.10;;;;;;;9.41;85.66;99605.57;109099;1257;83541;-64
2023/03/31 01:49:55;;;;;;;3.10;0.80;;;;;;;9.47;85.71;99605.45;109084;1257;73848;-64
2023/03/31 01:52:26;;;;;;;3.10;1.20;;;;;;;9.52;85.62;99604.02;109046;1257;66898;-64
2023/03/31 01:55:02;;;;;;;2.00;0.80;;;;;;;9.57;85.62;99599.58;109106;1257;66830;-64
2023/03/31 01:58:00;;;;;;;3.60;1.10;;;;;;;9.61;85.54;99596.45;109033;1257;74930;-64
2023/03/31 02:00:32;;;;;;;2.40;0.90;;;;;;;9.66;85.35;99589.63;108983;1257;82849;-64
2023/03/31 02:03:15;;;;;;;3.70;1.00;;;;;;;9.71;85.30;99590.77;109066;1256;72766;-64
2023/03/31 02:05:51;;;;;;;3.50;0.80;;;;;;;9.78;85.25;99589.02;109076;1257;66910;-64
2023/03/31 02:08:40;;;;;;;5.60;1.00;;;;;;;9.84;85.06;99587.20;109066;1257;66817;-63
2023/03/31 02:11:09;;;;;;;2.50;0.90;;;;;;;9.90;84.94;99583.45;109014;1257;75021;-64
2023/03/31 02:13:40;;;;;;;3.00;0.80;;;;;;;9.92;84.81;99580.87;109013;1257;83477;-64
2023/03/31 02:16:13;;;;;;;4.10;1.00;;;;;;;9.96;84.78;99580.35;109045;1258;73371;-64
2023/03/31 02:18:43;;;;;;;2.80;0.80;;;;;;;10.00;84.63;99576.52;109021;1257;66968;-64
2023/03/31 02:21:15;;;;;;;3.80;0.90;;;;;;;10.03;84.48;99573.22;109129;1257;66821;-65
2023/03/31 02:23:44;;;;;;;2.40;0.80;;;;;;;10.07;84.30;99570.27;109081;1258;74881;-64
2023/03/31 02:26:23;;;;;;;2.30;0.60;;;;;;;10.08;84.15;99570.20;109068;1257;83592;-64
2023/03/31 02:28:51;;;;;;;2.70;0.70;;;;;;;10.11;84.02;99571.10;108825;1257;246202;-64
2023/03/31 02:31:45;;;;;;;5.80;0.80;;;;;;;10.12;83.92;99568.42;109032;1257;67028;-64
2023/03/31 02:34:14;;;;;;;3.10;0.80;;;;;;;10.15;83.85;99565.66;109012;1257;66918;-64
2023/03/31 02:36:44;;;;;;;1.50;0.90;;;;;;;10.18;83.78;99564.65;109082;1257;74792;-63
2023/03/31 02:39:18;;;;;;;4.00;0.90;;;;;;;10.19;83.57;99560.06;109086;1257;83520;-62
2023/03/31 02:41:46;;;;;;;3.10;0.70;;;;;;;10.19;83.48;99562.15;109092;1257;73911;-62
2023/03/31 02:44:15;;;;;;;2.80;1.00;;;;;;;10.18;83.27;99554.69;109054;1258;66890;-62
2023/03/31 02:46:45;;;;;;;4.00;0.90;;;;;;;10.17;83.21;99551.75;109055;1257;66863;-62
2023/03/31 02:49:15;;;;;;;4.20;1.00;;;;;;;10.16;83.11;99545.52;109010;1257;75110;-62
2023/03/31 02:51:50;;;;;;;3.30;0.90;;;;;;;10.15;83.01;99542.98;109130;1257;83287;-61
2023/03/31 02:54:42;;;;;;;6.20;1.00;;;;;;;10.14;82.86;99536.54;109095;1257;72810;-61
2023/03/31 02:57:17;;;;;;;3.10;0.90;;;;;;;10.12;82.90;99531.23;108999;1257;66902;-62
2023/03/31 03:00:08;;;;;;;3.90;1.00;;;;;;;10.09;82.84;99524.42;109055;1257;66906;-62
2023/03/31 03:02:59;;;;;;;2.90;1.10;;;;;;;10.07;82.76;99524.52;109070;1257;73998;-62
2023/03/31 03:05:49;;;;;;;4.30;1.20;;;;;;;10.04;82.63;99522.91;109103;1257;82225;-62
2023/03/31 03:08:44;;;;;;;3.30;1.00;;;;;;;9.99;82.59;99514.07;109034;1257;72779;-61
2023/03/31 03:11:26;;;;;;;3.20;1.00;;;;;;;9.95;82.59;99512.31;109039;1257;66829;-62
2023/03/31 03:14:09;;;;;;;3.30;1.00;;;;;;;9.92;82.48;99511.79;109107;1257;66878;-61
2023/03/31 03:16:45;;;;;;;4.00;1.00;;;;;;;9.87;82.45;99515.35;109108;1257;74908;-61
2023/03/31 03:19:21;;;;;;;3.30;1.00;;;;;;;9.84;82.50;99516.00;109107;1257;83381;-61
2023/03/31 03:21:49;;;;;;;2.50;1.00;;;;;;;9.82;82.47;99514.72;108996;1256;72348;-62
2023/03/31 03:24:18;;;;;;;5.80;1.00;;;;;;;9.78;82.39;99517.19;109076;1257;66803;-61
2023/03/31 03:26:46;;;;;;;3.40;1.30;;;;;;;9.73;82.32;99515.33;109075;1257;66836;-62
2023/03/31 03:29:15;;;;;;;2.60;1.00;;;;;;;9.69;82.26;99520.23;109068;1257;75078;-62
2023/03/31 03:31:43;;;;;;;3.60;1.00;;;;;;;9.63;82.20;99519.63;109111;1257;83150;-61
2023/03/31 03:34:12;;;;;;;4.30;1.30;;;;;;;9.56;82.22;99518.73;109051;1257;74073;-61
2023/03/31 03:36:40;;;;;;;4.00;1.20;;;;;;;9.51;82.32;99516.16;109056;1257;66799;-62
2023/03/31 03:39:09;;;;;;;4.30;1.10;;;;;;;9.46;82.32;99508.73;109068;1257;66840;-62
2023/03/31 03:41:37;;;;;;;4.40;1.20;;;;;;;9.40;82.27;99509.01;109118;1257;74764;-62
2023/03/31 03:44:06;;;;;;;3.40;1.00;;;;;;;9.36;82.39;99506.74;109082;1257;83378;-61
2023/03/31 03:46:34;;;;;;;3.20;1.10;;;;;;;9.32;82.32;99508.16;109049;1256;72770;-61
2023/03/31 03:49:03;;;;;;;4.00;1.50;;;;;;;9.28;82.52;99509.38;109051;1257;66873;-61
2023/03/31 03:51:34;;;;;;;3.40;1.50;;;;;;;9.26;82.45;99507.57;109091;1257;66845;-61
2023/03/31 03:54:03;;;;;;;2.10;1.00;;;;;;;9.23;82.72;99510.48;109110;1258;75510;-61
2023/03/31 03:56:31;;;;;;;4.60;1.20;;;;;;;9.21;82.55;99507.30;109095;1258;83387;-61
2023/03/31 03:59:00;;;;;;;3.00;1.10;;;;;;;9.17;82.65;99506.92;109079;1257;72844;-61
2023/03/31 04:01:28;;;;;;;3.30;1.30;;;;;;;9.13;82.69;99503.12;109088;1257;67239;-61
2023/03/31 04:03:57;;;;;;;4.00;1.70;;;;;;;9.09;82.70;99506.23;108916;1261;67350;-59
2023/03/31 04:06:26;;;;;;;4.00;1.50;;;;;;;9.05;82.70;99505.05;108896;1257;74029;-59
2023/03/31 04:08:55;;;;;;;4.60;1.70;;;;;;;9.02;82.77;99506.02;108865;1257;83502;-59
2023/03/31 04:11:23;;;;;;;3.50;1.60;;;;;;;9.00;82.92;99497.27;108868;1258;72744;-59
2023/03/31 04:13:52;;;;;;;3.10;1.20;;;;;;;8.98;82.93;99493.69;108879;1257;67076;-59
2023/03/31 04:16:24;;;;;;;3.00;1.40;;;;;;;8.96;83.00;99488.01;108898;1256;66825;-59
2023/03/31 04:18:55;;;;;;;5.50;1.40;;;;;;;8.95;83.02;99485.26;108964;1256;74930;-59
2023/03/31 04:21:24;;;;;;;3.00;1.30;;;;;;;8.94;83.13;99490.00;108949;1256;83242;-59
2023/03/31 04:24:06;;;;;;;4.30;1.60;;;;;;;8.93;83.28;99479.10;108909;1257;73743;-60
2023/03/31 04:26:43;;;;;;;3.20;1.20;;;;;;;8.90;83.30;99476.97;108874;1257;67264;-59
2023/03/31 04:29:15;;;;;;;4.40;1.60;;;;;;;8.89;83.31;99474.38;108874;1260;66882;-59
2023/03/31 04:31:43;;;;;;;4.20;1.50;;;;;;;8.89;83.22;99475.60;108897;1259;73944;-59
2023/03/31 04:34:14;;;;;;;3.70;1.50;;;;;;;8.88;83.52;99475.49;108876;1257;82386;-59
2023/03/31 04:36:45;;;;;;;5.30;1.20;;;;;;;8.87;83.38;99472.91;108867;1257;74822;-60
2023/03/31 04:39:23;;;;;;;2.40;1.20;;;;;;;8.86;83.53;99471.02;108866;1258;66909;-60
2023/03/31 04:41:52;;;;;;;5.30;2.00;;;;;;;8.87;83.60;99471.69;108935;1256;67127;-59
2023/03/31 04:44:20;;;;;;;3.90;1.30;;;;;;;8.88;83.52;99468.71;108967;1256;73034;-60
2023/03/31 04:46:49;;;;;;;5.40;1.30;;;;;;;8.88;83.65;99469.39;108969;1256;83367;-60
2023/03/31 04:49:17;;;;;;;5.10;1.70;;;;;;;8.89;83.42;99460.45;108939;1256;73837;-59
2023/03/31 04:51:46;;;;;;;6.70;1.50;;;;;;;8.90;83.46;99461.29;108932;1256;67177;-59
2023/03/31 04:54:14;;;;;;;3.70;1.80;;;;;;;8.91;83.56;99456.35;108946;1256;67108;-59
2023/03/31 04:56:43;;;;;;;7.80;1.60;;;;;;;8.92;83.74;99457.34;108969;1256;73949;-60
2023/03/31 04:59:11;;;;;;;4.20;1.40;;;;;;;8.93;83.62;99455.72;108884;1257;83260;-59
2023/03/31 05:01:43;;;;;;;5.80;2.10;;;;;;;8.96;83.61;99458.25;108886;1257;73134;-61
2023/03/31 05:04:12;;;;;;;6.50;1.40;;;;;;;8.97;83.55;99459.03;108854;1257;67560;-61
2023/03/31 05:06:41;;;;;;;3.00;1.10;;;;;;;8.99;83.58;99454.76;108876;1257;67238;-62
2023/03/31 05:09:09;;;;;;;2.50;1.20;;;;;;;9.00;83.54;99447.92;108884;1259;74847;-67
2023/03/31 05:11:37;;;;;;;4.20;1.30;;;;;;;9.02;83.54;99446.43;108822;1259;83976;-64
2023/03/31 05:14:06;;;;;;;4.60;1.30;;;;;;;9.04;83.56;99443.73;108846;1257;73838;-64
2023/03/31 05:16:34;;;;;;;3.00;1.50;;;;;;;9.06;83.46;99445.05;108859;1257;66900;-63
2023/03/31 05:19:03;;;;;;;4.60;1.30;;;;;;;9.07;83.46;99443.79;108862;1257;67340;-63
2023/03/31 05:21:31;;;;;;;2.30;1.20;;;;;;;9.09;83.35;99442.98;108865;1257;73939;-64
2023/03/31 05:23:59;;;;;;;5.30;1.50;;;;;;;9.10;83.47;99442.59;108836;1260;83383;-63
2023/03/31 05:26:28;;;;;;;14.10;5.60;;;;;;;9.11;83.49;99443.42;108840;1257;73840;-62
2023/03/31 05:28:56;;;;;;;6.40;2.60;;;;;;;9.12;83.48;99440.21;108844;1257;67382;-62
2023/03/31 05:31:26;;;;;;;9.10;3.10;;;;;;;9.13;83.39;99439.47;108838;1257;66932;-62
2023/03/31 05:33:54;;;;;;;5.40;2.30;;;;;;;9.16;83.38;99436.58;108781;1259;73860;-62
2023/03/31 05:36:22;;;;;;;5.40;2.10;;;;;;;9.18;83.23;99434.58;108890;1257;83370;-62
2023/03/31 05:38:51;;;;;;;4.50;1.50;;;;;;;9.18;83.24;99436.85;108831;1257;73990;-62
2023/03/31 05:41:19;;;;;;;5.30;1.80;;;;;;;9.19;83.23;99435.59;108971;1256;66964;-61
2023/03/31 05:43:48;;;;;;;4.40;1.50;;;;;;;9.18;83.33;99434.76;108947;1256;67732;-60
2023/03/31 05:46:17;;;;;;;4.10;1.50;;;;;;;9.17;83.09;99428.67;108891;1259;74995;-60
2023/03/31 05:48:45;;;;;;;5.00;1.60;;;;;;;9.17;83.08;99428.33;108839;1258;82556;-63
2023/03/31 05:51:14;;;;;;;6.60;1.80;;;;;;;9.17;83.15;99425.73;108866;1256;72724;-62
2023/03/31 05:53:42;;;;;;;4.30;1.90;;;;;;;9.16;83.21;99419.99;108831;1257;67026;-62
2023/03/31 05:56:11;;;;;;;4.80;1.50;;;;;;;9.16;83.30;99422.27;108892;1257;66984;-61
2023/03/31 05:58:39;;;;;;;4.80;2.00;;;;;;;9.15;83.21;99421.77;108853;1257;74894;-61
2023/03/31 06:01:13;;;;;;;3.50;1.80;;;;;;;9.15;83.20;99419.89;108854;1257;83789;-61
2023/03/31 06:03:45;;;;;;;3.20;1.40;;;;;;;9.15;83.44;99423.54;108841;1257;73931;-61
2023/03/31 06:06:15;;;;;;;4.90;1.70;;;;;;;9.17;83.46;99419.25;108830;1257;67583;-61
2023/03/31 06:08:44;;;;;;;6.20;1.80;;;;;;;9.22;83.61;99417.98;108842;1257;66946;-62
2023/03/31 06:11:21;;;;;;;4.40;1.60;;;;;;;9.25;83.50;99416.98;108838;1257;73971;-61
2023/03/31 06:13:49;;;;;;;5.00;2.00;;;;;;;9.28;83.57;99420.65;108823;1259;82104;-60
2023/03/31 06:16:18;;;;;;;8.20;2.40;;;;;;;9.30;83.43;99417.61;108827;1257;72882;-63
2023/03/31 06:18:47;;;;;;;4.90;1.70;;;;;;;9.33;83.41;99417.30;108830;1257;67725;-61
2023/03/31 06:21:17;;;;;;;4.10;1.80;;;;;;;9.36;83.49;99416.42;108855;1257;66864;-60
2023/03/31 06:23:45;;;;;;;4.10;1.80;;;;;;;9.40;83.56;99411.00;108840;1258;75009;-60
2023/03/31 06:26:16;;;;;;;4.30;1.50;;;;;;;9.45;83.45;99408.73;108954;1256;83806;-61
2023/03/31 06:28:45;;;;;;;5.90;2.00;;;;;;;9.49;83.60;99403.30;108958;1257;73779;-64
2023/03/31 06:31:16;;;;;;;5.50;2.90;;;;;;;9.53;83.46;99404.96;108994;1257;66904;-64
2023/03/31 06:33:45;;;;;;;16.40;8.50;;;;;;;9.57;83.36;99405.48;109053;1257;66775;-64
2023/03/31 06:36:16;;;;;;;13.20;5.30;;;;;;;9.61;83.41;99401.98;109045;1259;74980;-63
2023/03/31 06:38:45;;;;;;;15.70;5.00;;;;;;;9.65;83.38;99396.55;109058;1257;83498;-64
2023/03/31 06:41:15;;;;;;;10.60;3.80;;;;;;;9.72;83.46;99390.63;109012;1257;73943;-64
2023/03/31 06:43:43;;;;;;;6.40;2.40;;;;;;;9.76;83.27;99389.73;109066;1257;66916;-64
2023/03/31 06:46:12;;;;;;;6.40;2.30;;;;;;;9.83;83.33;99387.99;109104;1257;66858;-64
2023/03/31 06:48:40;;;;;;;5.70;2.10;;;;;;;9.89;83.17;99383.88;109053;1259;74013;-65
2023/03/31 06:51:09;;;;;;;8.60;3.10;;;;;;;9.94;83.11;99375.93;109070;1257;83916;-64
2023/03/31 06:53:38;;;;;;;7.10;3.60;;;;;;;9.99;82.97;99374.23;109062;1256;74029;-64
2023/03/31 06:56:06;;;;;;;6.80;2.60;;;;;;;10.03;82.80;99375.61;109073;1257;66827;-64
2023/03/31 06:58:35;;;;;;;6.90;2.50;;;;;;;10.06;82.63;99366.60;109065;1257;66804;-64
2023/03/31 07:01:04;;;;;;;4.90;2.40;;;;;;;10.10;82.59;99366.52;109079;1257;74870;-64
2023/03/31 07:03:33;;;;;;;9.10;3.60;;;;;;;10.16;82.45;99362.39;109081;1257;84422;-64
2023/03/31 07:06:02;;;;;;;17.40;7.90;;;;;;;10.19;82.30;99363.83;109090;1257;73148;-64
2023/03/31 07:08:31;;;;;;;16.50;6.90;;;;;;;10.23;82.40;99359.91;109037;1258;67123;-64
2023/03/31 07:10:59;;;;;;;11.30;4.80;;;;;;;10.29;82.25;99352.84;109055;1257;66845;-64
2023/03/31 07:13:28;;;;;;;6.60;3.00;;;;;;;10.35;82.09;99358.65;109095;1257;74816;-65
2023/03/31 07:15:57;;;;;;;5.90;2.50;;;;;;;10.42;81.94;99358.29;109113;1257;83382;-65
2023/03/31 07:18:30;;;;;;;3.00;1.70;;;;;;;10.47;81.72;99359.04;109052;1257;73622;-65
2023/03/31 07:21:02;;;;;;;4.40;1.90;;;;;;;10.54;81.75;99358.02;109109;1257;66853;-64
2023/03/31 07:23:36;;;;;;;5.20;2.00;;;;;;;10.61;81.52;99348.52;109106;1260;66863;-64
2023/03/31 07:26:05;;;;;;;3.70;1.80;;;;;;;10.67;81.47;99346.45;109061;1257;74920;-64
2023/03/31 07:28:34;;;;;;;6.40;2.00;;;;;;;10.77;81.46;99351.52;109033;1257;83424;-64
2023/03/31 07:31:02;;;;;;;6.00;2.00;;;;;;;10.84;81.20;99352.54;109059;1257;73912;-64
2023/03/31 07:33:31;;;;;;;5.50;2.50;;;;;;;10.89;81.11;99349.26;108997;1257;66989;-64
2023/03/31 07:36:03;;;;;;;5.20;2.20;;;;;;;10.96;80.88;99347.69;109055;1258;66803;-64
2023/03/31 07:38:42;;;;;;;5.90;2.40;;;;;;;11.03;80.73;99349.56;109036;1260;75066;-64
2023/03/31 07:41:16;;;;;;;4.60;2.00;;;;;;;11.11;80.71;99349.95;109110;1257;83811;-64
2023/03/31 07:43:45;;;;;;;3.80;2.20;;;;;;;11.20;80.64;99347.73;109037;1257;74263;-64
2023/03/31 07:46:24;;;;;;;7.10;2.70;;;;;;;11.27;80.63;99340.53;109065;1257;67316;-64
2023/03/31 07:48:54;;;;;;;4.50;2.20;;;;;;;11.36;80.30;99336.31;109086;1257;66805;-64
2023/03/31 07:51:24;;;;;;;6.60;2.60;;;;;;;11.43;80.21;99331.70;109102;1257;73972;-64
2023/03/31 07:53:53;;;;;;;6.20;2.50;;;;;;;11.52;80.02;99334.70;109088;1257;83386;-64
2023/03/31 07:56:23;;;;;;;6.50;2.70;;;;;;;11.64;79.99;99329.98;109092;1257;72613;-64
2023/03/31 07:58:51;;;;;;;;;;;;;;;11.74;79.68;99325.35;109092;1257;66825;-65
2023/03/31 08:01:24;;;;;;;7.60;2.30;;;;;;;11.83;79.42;99323.62;109044;1257;66900;-64
2023/03/31 08:03:54;;;;;;;4.70;2.40;;;;;;;11.95;79.67;99322.45;109089;1257;74797;-64
2023/03/31 08:06:24;;;;;;;5.20;2.50;;;;;;;12.11;79.60;99317.78;109090;1257;82286;-65
2023/03/31 08:08:52;;;;;;;6.30;2.90;;;;;;;12.24;79.31;99317.14;109046;1257;73853;-64
2023/03/31 08:11:20;;;;;;;8.20;3.30;;;;;;;12.36;79.36;99317.32;109080;1258;66901;-64
2023/03/31 08:13:49;;;;;;;6.50;2.70;;;;;;;12.46;79.10;99315.80;109044;1257;66844;-64
2023/03/31 08:16:18;;;;;;;6.40;2.30;;;;;;;12.50;78.80;99316.27;109052;1261;74991;-64
2023/03/31 08:18:46;;;;;;;6.20;2.70;;;;;;;12.54;78.74;99311.59;109086;1257;82354;-64
2023/03/31 08:21:15;;;;;;;6.70;2.90;;;;;;;12.61;78.64;99306.95;109032;1261;73886;-65
2023/03/31 08:23:43;;;;;;;8.30;3.80;;;;;;;12.66;78.33;99299.63;109056;1257;66878;-65
2023/03/31 08:26:14;;;;;;;7.60;2.90;;;;;;;12.71;78.23;99291.61;109064;1257;66806;-65
2023/03/31 08:28:47;;;;;;;5.10;2.60;;;;;;;12.78;77.96;99284.34;109056;1257;73204;-65
2023/03/31 08:31:17;;;;;;;6.40;2.70;;;;;;;12.83;77.88;99279.10;109084;1261;83852;-65
2023/03/31 08:33:46;;;;;;;4.10;2.20;;;;;;;12.91;77.97;99274.40;109049;1257;73205;-65
2023/03/31 08:36:14;;;;;;;5.60;2.40;;;;;;;13.02;77.82;99272.13;109020;1257;66933;-65
2023/03/31 08:38:45;;;;;;;7.30;2.20;;;;;;;13.15;77.83;99275.27;109064;1257;66853;-65
2023/03/31 08:41:42;;;;;;;4.60;2.50;;;;;;;13.22;77.46;99272.53;109096;1257;75016;-65
2023/03/31 08:44:18;;;;;;;6.90;2.60;;;;;;;13.28;76.93;99276.73;109087;1257;83461;-65
2023/03/31 08:46:48;;;;;;;9.60;2.70;;;;;;;13.34;77.04;99270.38;109064;1257;73719;-65
2023/03/31 08:49:18;;;;;;;6.00;2.60;;;;;;;13.46;76.97;99266.08;109094;1257;66829;-65
2023/03/31 08:51:50;;;;;;;5.40;2.40;;;;;;;13.58;76.83;99264.52;109075;1257;66832;-65
2023/03/31 08:54:28;;;;;;;6.30;2.50;;;;;;;13.67;76.03;99261.68;109021;1257;73817;-65
2023/03/31 08:56:56;;;;;;;12.10;3.50;;;;;;;13.77;75.71;99256.44;109107;1260;81625;-65
2023/03/31 08:59:33;;;;;;;5.50;2.60;;;;;;;13.84;75.64;99251.05;109050;1257;73748;-65
2023/03/31 09:02:40;;;;;;;6.00;2.70;;;;;;;13.92;75.39;99242.04;109083;1257;66983;-64
2023/03/31 09:05:33;;;;;;;4.40;2.40;;;;;;;14.02;75.09;99239.63;109056;1261;66889;-67
2023/03/31 09:08:27;;;;;;;9.00;2.90;;;;;;;14.12;75.00;99234.32;109129;1257;75297;-66
2023/03/31 09:11:03;;;;;;;4.00;2.20;;;;;;;14.18;74.63;99234.81;109081;1257;83494;-63
2023/03/31 09:13:34;;;;;;;4.90;2.20;;;;;;;14.13;74.16;99237.30;108975;1258;72797;-61
2023/03/31 09:16:19;;;;;;;4.90;2.10;;;;;;;14.04;74.11;99234.91;109031;1257;66891;-63
2023/03/31 09:18:48;;;;;;;6.30;2.10;;;;;;;13.97;73.71;99233.50;109116;1257;66800;-63
2023/03/31 09:21:24;;;;;;;4.80;2.50;;;;;;;13.95;74.08;99224.29;109098;1256;74973;-65
2023/03/31 09:24:18;;;;;;;5.60;2.80;;;;;;;14.00;74.11;99217.83;109017;1257;83561;-65
2023/03/31 09:27:06;;;;;;;5.50;2.40;;;;;;;14.02;74.15;99214.46;109060;1257;73894;-65
2023/03/31 09:29:40;;;;;;;6.40;2.40;;;;;;;14.12;73.97;99207.30;109075;1257;66812;-65
2023/03/31 09:32:29;;;;;;;6.40;2.90;;;;;;;14.16;73.57;99203.28;109074;1257;66820;-65
2023/03/31 09:35:15;;;;;;;6.00;2.10;;;;;;;14.21;73.25;99197.68;109108;1257;74684;-65
2023/03/31 09:37:44;;;;;;;5.30;2.30;;;;;;;14.28;73.26;99194.73;109057;1257;83490;-64
2023/03/31 09:40:20;;;;;;;6.30;2.30;;;;;;;14.36;73.30;99190.85;109085;1257;73947;-65
2023/03/31 09:43:21;;;;;;;5.40;2.30;;;;;;;14.42;73.10;99193.72;108988;1261;66887;-76
2023/03/31 09:45:49;;;;;;;6.30;2.20;;;;;;;14.46;72.83;99184.66;108999;1257;66914;-70
2023/03/31 09:48:36;;;;;;;8.90;2.00;;;;;;;14.55;72.52;99181.36;109078;1257;75028;-70
2023/03/31 09:51:07;;;;;;;5.50;1.90;;;;;;;14.57;71.87;99168.05;109074;1257;84016;-70
2023/03/31 09:54:06;;;;;;;4.80;1.90;;;;;;;14.56;71.50;99166.77;109043;1257;73726;-70
2023/03/31 09:56:47;;;;;;;5.30;1.80;;;;;;;14.54;71.04;99158.64;109029;1257;66957;-70
2023/03/31 09:59:21;;;;;;;4.50;1.80;;;;;;;14.54;71.15;99160.05;109053;1258;66833;-71
2023/03/31 10:01:51;;;;;;;4.90;2.10;;;;;;;14.53;71.10;99153.41;109029;1257;75219;-69
2023/03/31 10:04:25;;;;;;;4.50;1.90;;;;;;;14.54;70.88;99149.51;109052;1257;83408;-70
2023/03/31 10:06:54;;;;;;;5.90;2.30;;;;;;;14.48;70.86;99145.25;109002;1257;73896;-67
2023/03/31 10:09:29;;;;;;;5.70;2.20;;;;;;;14.50;71.00;99146.56;108971;1259;66809;-54
2023/03/31 10:12:01;;;;;;;5.00;2.20;;;;;;;14.49;70.64;99149.40;109073;1257;66869;-54
2023/03/31 10:14:52;;;;;;;5.90;2.30;;;;;;;14.50;70.96;99144.94;109043;1257;73924;-54
2023/03/31 10:17:23;;;;;;;4.30;2.60;;;;;;;14.56;70.99;99145.51;109063;1257;83360;-53
2023/03/31 10:19:58;;;;;;;6.80;2.90;;;;;;;14.58;71.16;99145.32;109030;1257;73215;-55
2023/03/31 10:22:29;;;;;;;6.60;3.60;;;;;;;14.60;71.17;99144.80;109021;1257;66904;-55
2023/03/31 10:25:17;;;;;;;10.30;3.50;;;;;;;14.62;71.18;99142.73;109046;1257;67215;-54
2023/03/31 10:27:47;;;;;;;5.10;3.40;;;;;;;14.69;71.40;99137.44;109049;1257;74909;-53
2023/03/31 10:30:24;;;;;;;6.80;4.20;;;;;;;14.81;72.04;99136.91;109020;1257;83940;-53
2023/03/31 10:32:52;;;;;;;9.00;4.00;;;;;;;14.93;71.75;99137.77;109004;1257;73742;-54
2023/03/31 10:35:34;;;;;;;7.10;4.20;;;;;;;14.99;71.79;99134.71;109050;1257;66947;-56
2023/03/31 10:38:05;;;;;;;8.80;4.70;;;;;;;14.97;71.46;99128.15;109060;1257;66838;-54
2023/03/31 10:40:35;;;;;;;7.60;4.30;;;;;;;14.95;71.68;99124.63;109061;1257;75268;-55
2023/03/31 10:43:08;;;;;;;6.60;4.20;;;;;;;14.98;71.31;99122.45;109067;1257;82275;-54
2023/03/31 10:45:42;;;;;;;6.30;4.30;;;;;;;14.99;71.14;99112.40;109038;1257;72688;-54
2023/03/31 10:48:28;;;;;;;8.10;4.20;;;;;;;15.03;70.90;99103.66;109014;1257;66826;-53
2023/03/31 10:51:03;;;;;;;5.60;3.70;;;;;;;15.11;70.58;99097.53;109049;1257;66820;-54
2023/03/31 10:53:43;;;;;;;6.60;4.30;;;;;;;15.26;70.70;99092.17;109087;1257;72892;-54
2023/03/31 10:56:36;;;;;;;7.90;4.60;;;;;;;15.62;70.85;99093.79;109105;1257;83277;-54
2023/03/31 10:59:18;;;;;;;9.90;5.00;;;;;;;15.94;70.22;99088.66;109010;1260;73884;-54
2023/03/31 11:02:08;;;;;;;7.40;4.90;;;;;;;15.95;69.22;99078.84;108999;1260;66922;-54
2023/03/31 11:04:36;;;;;;;7.50;5.00;;;;;;;15.92;69.23;99074.81;109076;1258;66828;-54
2023/03/31 11:07:08;;;;;;;9.00;6.30;;;;;;;15.89;69.06;99072.11;109040;1257;72843;-54
2023/03/31 11:09:48;;;;;;;9.00;5.90;;;;;;;15.87;68.99;99062.45;109116;1257;83351;-53
2023/03/31 11:12:33;;;;;;;13.50;8.40;;;;;;;15.96;69.06;99053.52;109009;1257;72674;-54
2023/03/31 11:15:21;;;;;;;7.90;4.80;;;;;;;16.11;69.09;99050.08;109049;1256;66877;-54
2023/03/31 11:18:19;;;;;;;9.00;4.30;;;;;;;16.22;68.60;99036.52;109089;1256;66944;-54
2023/03/31 11:21:19;;;;;;;15.80;10.10;;;;;;;16.44;68.41;99027.98;109165;1257;74203;-54
2023/03/31 11:24:20;;;;;;;8.00;6.10;;;;;;;16.64;68.15;99026.64;109147;1256;83456;-53
2023/03/31 11:26:54;;;;;;;11.00;6.70;;;;;;;16.64;67.46;99017.59;109114;1256;72693;-55
2023/03/31 11:29:58;;;;;;;7.30;5.00;;;;;;;16.66;67.35;99019.78;109080;1257;67296;-54
2023/03/31 11:32:32;;;;;;;8.60;4.90;;;;;;;16.54;66.92;99013.40;108944;1260;66991;-53
2023/03/31 11:35:14;;;;;;;9.70;5.00;;;;;;;16.31;66.65;99011.90;109176;1256;74861;-52
2023/03/31 11:38:10;;;;;;;8.00;4.60;;;;;;;16.14;66.98;99003.14;109130;1256;83422;-54
2023/03/31 11:40:58;;;;;;;8.60;5.30;;;;;;;15.94;66.88;98996.62;109143;1256;72783;-53
2023/03/31 11:43:32;;;;;;;9.80;5.50;;;;;;;15.65;66.73;98996.88;109103;1256;66947;-53
2023/03/31 11:46:14;;;;;;;10.20;5.40;;;;;;;15.38;66.86;98994.79;109155;1256;67398;-53
2023/03/31 11:48:52;;;;;;;10.60;5.40;;;;;;;15.07;67.57;98991.59;109105;1256;73818;-53
2023/03/31 11:51:25;;;;;;;;;;;;;;;14.53;68.65;98987.61;109066;1257;83233;-52
2023/03/31 11:53:58;;;;;;;9.80;5.60;;;;;;;14.11;69.89;98983.94;109145;1256;73443;-52
2023/03/31 11:56:34;;;;;;;11.50;5.80;;;;;;;13.80;70.86;98982.65;109143;1256;66867;-54
2023/03/31 11:59:03;;;;;;;8.60;6.10;;;;;;;13.52;71.90;98995.38;109078;1256;66802;-56
2023/03/31 12:01:39;;;;;;;10.10;7.00;;;;;;;13.04;72.21;98999.27;109150;1256;75515;-56
2023/03/31 12:04:32;;;;;;;10.70;5.80;;;;;;;12.54;73.34;99002.17;109140;1257;83364;-57